sensor_id;sensor_type;location;lat;lon;timestamp;temperature;humidity
45537;DHT22;31262;51.978;5.924;2022-11-24T00:00:17;11.70;75.40
45537;DHT22;31262;51.978;5.924;2022-11-24T00:02:43;11.70;75.40
45537;DHT22;31262;51.978;5.924;2022-11-24T00:05:08;11.70;75.40
45537;DHT22;31262;51.978;5.924;2022-11-24T00:07:34;11.70;75.30
45537;DHT22;31262;51.978;5.924;2022-11-24T00:09:59;11.70;75.30
45537;DHT22;31262;51.978;5.924;2022-11-24T00:12:25;11.70;75.40
45537;DHT22;31262;51.978;5.924;2022-11-24T00:14:50;11.60;75.70
45537;DHT22;31262;51.978;5.924;2022-11-24T00:17:16;11.50;75.90
45537;DHT22;31262;51.978;5.924;2022-11-24T00:19:41;11.50;76.10
45537;DHT22;31262;51.978;5.924;2022-11-24T00:22:07;11.50;76.10
45537;DHT22;31262;51.978;5.924;2022-11-24T00:24:33;11.50;76.20
45537;DHT22;31262;51.978;5.924;2022-11-24T00:26:58;11.50;76.10
45537;DHT22;31262;51.978;5.924;2022-11-24T00:29:24;11.50;76.10
45537;DHT22;31262;51.978;5.924;2022-11-24T00:31:49;11.50;76.10
45537;DHT22;31262;51.978;5.924;2022-11-24T00:34:15;11.40;76.30
45537;DHT22;31262;51.978;5.924;2022-11-24T00:36:42;11.30;76.50
45537;DHT22;31262;51.978;5.924;2022-11-24T00:39:11;11.30;76.50
45537;DHT22;31262;51.978;5.924;2022-11-24T00:41:37;11.30;76.60
45537;DHT22;31262;51.978;5.924;2022-11-24T00:44:03;11.30;76.60
45537;DHT22;31262;51.978;5.924;2022-11-24T00:46:29;11.30;76.50
45537;DHT22;31262;51.978;5.924;2022-11-24T00:48:55;11.30;76.70
45537;DHT22;31262;51.978;5.924;2022-11-24T00:51:21;11.30;76.70
45537;DHT22;31262;51.978;5.924;2022-11-24T00:53:47;11.30;76.70
45537;DHT22;31262;51.978;5.924;2022-11-24T00:56:13;11.30;76.50
45537;DHT22;31262;51.978;5.924;2022-11-24T00:58:38;11.30;76.60
45537;DHT22;31262;51.978;5.924;2022-11-24T01:01:05;11.30;76.60
45537;DHT22;31262;51.978;5.924;2022-11-24T01:03:31;11.30;76.80
45537;DHT22;31262;51.978;5.924;2022-11-24T01:08:29;11.20;77.00
45537;DHT22;31262;51.978;5.924;2022-11-24T01:11:04;11.20;77.00
45537;DHT22;31262;51.978;5.924;2022-11-24T01:13:30;11.20;77.10
45537;DHT22;31262;51.978;5.924;2022-11-24T01:15:55;11.20;77.10
45537;DHT22;31262;51.978;5.924;2022-11-24T01:18:21;11.20;76.90
45537;DHT22;31262;51.978;5.924;2022-11-24T01:20:46;11.20;76.70
45537;DHT22;31262;51.978;5.924;2022-11-24T01:23:12;11.20;76.70
45537;DHT22;31262;51.978;5.924;2022-11-24T01:25:38;11.20;76.60
45537;DHT22;31262;51.978;5.924;2022-11-24T01:28:04;11.30;76.60
45537;DHT22;31262;51.978;5.924;2022-11-24T01:30:29;11.30;76.40
45537;DHT22;31262;51.978;5.924;2022-11-24T01:32:55;11.40;76.30
45537;DHT22;31262;51.978;5.924;2022-11-24T01:35:20;11.40;76.10
45537;DHT22;31262;51.978;5.924;2022-11-24T01:37:45;11.40;76.10
45537;DHT22;31262;51.978;5.924;2022-11-24T01:40:11;11.40;76.10
45537;DHT22;31262;51.978;5.924;2022-11-24T01:42:47;11.50;76.10
45537;DHT22;31262;51.978;5.924;2022-11-24T01:47:57;11.60;75.70
45537;DHT22;31262;51.978;5.924;2022-11-24T01:50:23;11.60;75.50
45537;DHT22;31262;51.978;5.924;2022-11-24T01:52:50;11.60;75.30
45537;DHT22;31262;51.978;5.924;2022-11-24T01:55:19;11.70;75.30
45537;DHT22;31262;51.978;5.924;2022-11-24T01:57:47;11.70;75.10
45537;DHT22;31262;51.978;5.924;2022-11-24T02:00:15;11.70;75.00
45537;DHT22;31262;51.978;5.924;2022-11-24T02:02:41;11.70;74.90
45537;DHT22;31262;51.978;5.924;2022-11-24T02:05:18;11.70;74.80
45537;DHT22;31262;51.978;5.924;2022-11-24T02:07:44;11.70;74.80
45537;DHT22;31262;51.978;5.924;2022-11-24T02:10:12;11.50;74.90
45537;DHT22;31262;51.978;5.924;2022-11-24T02:12:38;11.40;75.20
45537;DHT22;31262;51.978;5.924;2022-11-24T02:15:05;11.30;75.40
45537;DHT22;31262;51.978;5.924;2022-11-24T02:17:32;11.30;75.60
45537;DHT22;31262;51.978;5.924;2022-11-24T02:19:58;11.30;75.90
45537;DHT22;31262;51.978;5.924;2022-11-24T02:25:02;11.20;76.00
45537;DHT22;31262;51.978;5.924;2022-11-24T02:27:31;11.20;76.00
45537;DHT22;31262;51.978;5.924;2022-11-24T02:29:57;11.20;76.00
45537;DHT22;31262;51.978;5.924;2022-11-24T02:32:22;11.20;76.00
45537;DHT22;31262;51.978;5.924;2022-11-24T02:34:48;11.20;76.10
45537;DHT22;31262;51.978;5.924;2022-11-24T02:37:13;11.10;76.10
45537;DHT22;31262;51.978;5.924;2022-11-24T02:39:39;11.10;76.10
45537;DHT22;31262;51.978;5.924;2022-11-24T02:42:05;11.10;76.20
45537;DHT22;31262;51.978;5.924;2022-11-24T02:44:34;11.10;76.30
45537;DHT22;31262;51.978;5.924;2022-11-24T02:47:04;11.00;76.50
45537;DHT22;31262;51.978;5.924;2022-11-24T02:49:30;10.90;76.80
45537;DHT22;31262;51.978;5.924;2022-11-24T02:51:56;10.90;76.90
45537;DHT22;31262;51.978;5.924;2022-11-24T02:54:21;10.90;76.90
45537;DHT22;31262;51.978;5.924;2022-11-24T02:56:47;10.90;77.60
45537;DHT22;31262;51.978;5.924;2022-11-24T02:59:12;10.90;76.90
45537;DHT22;31262;51.978;5.924;2022-11-24T03:01:38;10.90;76.90
45537;DHT22;31262;51.978;5.924;2022-11-24T03:04:03;10.90;76.80
45537;DHT22;31262;51.978;5.924;2022-11-24T03:06:29;10.90;76.80
45537;DHT22;31262;51.978;5.924;2022-11-24T03:08:54;10.90;76.80
45537;DHT22;31262;51.978;5.924;2022-11-24T03:11:20;10.90;76.80
45537;DHT22;31262;51.978;5.924;2022-11-24T03:13:45;10.90;77.00
45537;DHT22;31262;51.978;5.924;2022-11-24T03:16:11;10.90;77.10
45537;DHT22;31262;51.978;5.924;2022-11-24T03:18:36;10.80;77.00
45537;DHT22;31262;51.978;5.924;2022-11-24T03:21:02;10.90;77.00
45537;DHT22;31262;51.978;5.924;2022-11-24T03:23:27;10.90;76.90
45537;DHT22;31262;51.978;5.924;2022-11-24T03:25:53;10.90;77.00
45537;DHT22;31262;51.978;5.924;2022-11-24T03:28:19;10.90;76.70
45537;DHT22;31262;51.978;5.924;2022-11-24T03:30:46;10.90;76.70
45537;DHT22;31262;51.978;5.924;2022-11-24T03:33:12;10.90;76.70
45537;DHT22;31262;51.978;5.924;2022-11-24T03:35:37;10.90;76.80
45537;DHT22;31262;51.978;5.924;2022-11-24T03:38:03;11.00;76.80
45537;DHT22;31262;51.978;5.924;2022-11-24T03:40:28;10.90;76.70
45537;DHT22;31262;51.978;5.924;2022-11-24T03:42:54;10.90;76.80
45537;DHT22;31262;51.978;5.924;2022-11-24T03:45:19;10.80;77.10
45537;DHT22;31262;51.978;5.924;2022-11-24T03:47:48;10.80;77.30
45537;DHT22;31262;51.978;5.924;2022-11-24T03:50:14;10.70;78.20
45537;DHT22;31262;51.978;5.924;2022-11-24T03:52:39;10.70;77.70
45537;DHT22;31262;51.978;5.924;2022-11-24T03:55:05;10.70;77.80
45537;DHT22;31262;51.978;5.924;2022-11-24T03:57:30;10.60;77.80
45537;DHT22;31262;51.978;5.924;2022-11-24T03:59:56;10.60;78.00
45537;DHT22;31262;51.978;5.924;2022-11-24T04:02:21;10.60;78.20
45537;DHT22;31262;51.978;5.924;2022-11-24T04:04:47;10.60;78.20
45537;DHT22;31262;51.978;5.924;2022-11-24T04:07:15;10.50;78.30
45537;DHT22;31262;51.978;5.924;2022-11-24T04:09:40;10.50;78.40
45537;DHT22;31262;51.978;5.924;2022-11-24T04:12:06;10.50;78.40
45537;DHT22;31262;51.978;5.924;2022-11-24T04:14:50;10.50;78.50
45537;DHT22;31262;51.978;5.924;2022-11-24T04:17:16;10.40;78.50
45537;DHT22;31262;51.978;5.924;2022-11-24T04:19:41;10.50;78.60
45537;DHT22;31262;51.978;5.924;2022-11-24T04:22:07;10.50;78.60
45537;DHT22;31262;51.978;5.924;2022-11-24T04:24:33;10.50;78.60
45537;DHT22;31262;51.978;5.924;2022-11-24T04:26:58;10.60;78.50
45537;DHT22;31262;51.978;5.924;2022-11-24T04:29:24;10.80;78.40
45537;DHT22;31262;51.978;5.924;2022-11-24T04:31:49;10.80;78.10
45537;DHT22;31262;51.978;5.924;2022-11-24T04:34:15;10.80;77.80
45537;DHT22;31262;51.978;5.924;2022-11-24T04:36:40;10.80;77.60
45537;DHT22;31262;51.978;5.924;2022-11-24T04:39:06;10.80;77.60
45537;DHT22;31262;51.978;5.924;2022-11-24T04:41:31;10.80;77.60
45537;DHT22;31262;51.978;5.924;2022-11-24T04:43:57;10.90;77.50
45537;DHT22;31262;51.978;5.924;2022-11-24T04:46:22;10.90;77.30
45537;DHT22;31262;51.978;5.924;2022-11-24T04:48:47;11.00;77.10
45537;DHT22;31262;51.978;5.924;2022-11-24T04:51:13;11.00;77.00
45537;DHT22;31262;51.978;5.924;2022-11-24T04:53:39;11.00;77.00
45537;DHT22;31262;51.978;5.924;2022-11-24T04:56:05;11.10;76.90
45537;DHT22;31262;51.978;5.924;2022-11-24T04:58:31;11.20;76.80
45537;DHT22;31262;51.978;5.924;2022-11-24T05:00:56;11.30;76.60
45537;DHT22;31262;51.978;5.924;2022-11-24T05:03:22;11.50;76.30
45537;DHT22;31262;51.978;5.924;2022-11-24T05:05:48;11.60;76.00
45537;DHT22;31262;51.978;5.924;2022-11-24T05:08:13;11.80;75.70
45537;DHT22;31262;51.978;5.924;2022-11-24T05:10:39;11.80;75.20
45537;DHT22;31262;51.978;5.924;2022-11-24T05:13:08;11.90;74.90
45537;DHT22;31262;51.978;5.924;2022-11-24T05:15:35;11.90;74.70
45537;DHT22;31262;51.978;5.924;2022-11-24T05:18:02;11.90;74.70
45537;DHT22;31262;51.978;5.924;2022-11-24T05:20:28;11.90;74.70
45537;DHT22;31262;51.978;5.924;2022-11-24T05:22:54;11.90;74.20
45537;DHT22;31262;51.978;5.924;2022-11-24T05:25:19;11.80;74.00
45537;DHT22;31262;51.978;5.924;2022-11-24T05:27:45;11.80;74.00
45537;DHT22;31262;51.978;5.924;2022-11-24T05:30:10;11.90;73.90
45537;DHT22;31262;51.978;5.924;2022-11-24T05:32:36;11.80;73.40
45537;DHT22;31262;51.978;5.924;2022-11-24T05:35:02;11.70;73.60
45537;DHT22;31262;51.978;5.924;2022-11-24T05:37:28;11.60;74.00
45537;DHT22;31262;51.978;5.924;2022-11-24T05:39:54;11.50;74.10
45537;DHT22;31262;51.978;5.924;2022-11-24T05:42:19;11.50;74.30
45537;DHT22;31262;51.978;5.924;2022-11-24T05:45:05;11.50;74.30
45537;DHT22;31262;51.978;5.924;2022-11-24T05:47:31;11.60;74.30
45537;DHT22;31262;51.978;5.924;2022-11-24T05:49:57;11.60;74.40
45537;DHT22;31262;51.978;5.924;2022-11-24T05:52:22;11.60;74.30
45537;DHT22;31262;51.978;5.924;2022-11-24T05:54:48;11.70;74.20
45537;DHT22;31262;51.978;5.924;2022-11-24T05:57:15;11.70;74.20
45537;DHT22;31262;51.978;5.924;2022-11-24T05:59:40;11.70;74.00
45537;DHT22;31262;51.978;5.924;2022-11-24T06:02:06;11.80;74.00
45537;DHT22;31262;51.978;5.924;2022-11-24T06:04:31;11.80;74.00
45537;DHT22;31262;51.978;5.924;2022-11-24T06:06:57;11.70;73.90
45537;DHT22;31262;51.978;5.924;2022-11-24T06:09:22;11.70;73.90
45537;DHT22;31262;51.978;5.924;2022-11-24T06:11:48;11.60;73.80
45537;DHT22;31262;51.978;5.924;2022-11-24T06:14:13;11.60;73.80
45537;DHT22;31262;51.978;5.924;2022-11-24T06:16:39;11.70;73.90
45537;DHT22;31262;51.978;5.924;2022-11-24T06:19:04;11.60;73.80
45537;DHT22;31262;51.978;5.924;2022-11-24T06:21:30;11.60;73.90
45537;DHT22;31262;51.978;5.924;2022-11-24T06:23:56;11.50;74.00
45537;DHT22;31262;51.978;5.924;2022-11-24T06:26:21;11.60;73.90
45537;DHT22;31262;51.978;5.924;2022-11-24T06:28:47;11.70;73.80
45537;DHT22;31262;51.978;5.924;2022-11-24T06:31:12;11.60;73.80
45537;DHT22;31262;51.978;5.924;2022-11-24T06:33:38;11.60;73.90
45537;DHT22;31262;51.978;5.924;2022-11-24T06:36:04;11.60;74.00
45537;DHT22;31262;51.978;5.924;2022-11-24T06:38:30;11.60;74.00
45537;DHT22;31262;51.978;5.924;2022-11-24T06:40:59;11.60;74.00
45537;DHT22;31262;51.978;5.924;2022-11-24T06:43:26;11.70;74.00
45537;DHT22;31262;51.978;5.924;2022-11-24T06:45:51;11.70;74.10
45537;DHT22;31262;51.978;5.924;2022-11-24T06:48:17;11.70;74.00
45537;DHT22;31262;51.978;5.924;2022-11-24T06:50:42;11.70;74.20
45537;DHT22;31262;51.978;5.924;2022-11-24T06:53:08;11.70;74.20
45537;DHT22;31262;51.978;5.924;2022-11-24T06:55:33;11.80;74.20
45537;DHT22;31262;51.978;5.924;2022-11-24T06:57:58;11.90;74.10
45537;DHT22;31262;51.978;5.924;2022-11-24T07:00:24;11.90;74.10
45537;DHT22;31262;51.978;5.924;2022-11-24T07:02:50;11.90;74.10
45537;DHT22;31262;51.978;5.924;2022-11-24T07:05:15;11.90;74.20
45537;DHT22;31262;51.978;5.924;2022-11-24T07:07:40;11.90;74.20
45537;DHT22;31262;51.978;5.924;2022-11-24T07:10:06;12.00;74.10
45537;DHT22;31262;51.978;5.924;2022-11-24T07:12:32;12.00;74.00
45537;DHT22;31262;51.978;5.924;2022-11-24T07:14:58;12.20;73.90
45537;DHT22;31262;51.978;5.924;2022-11-24T07:17:23;12.30;73.70
45537;DHT22;31262;51.978;5.924;2022-11-24T07:19:49;12.20;73.50
45537;DHT22;31262;51.978;5.924;2022-11-24T07:22:14;12.40;73.50
45537;DHT22;31262;51.978;5.924;2022-11-24T07:24:40;12.40;73.40
45537;DHT22;31262;51.978;5.924;2022-11-24T07:27:05;12.40;73.20
45537;DHT22;31262;51.978;5.924;2022-11-24T07:29:31;12.30;73.30
45537;DHT22;31262;51.978;5.924;2022-11-24T07:31:57;12.30;73.40
45537;DHT22;31262;51.978;5.924;2022-11-24T07:34:22;12.20;73.50
45537;DHT22;31262;51.978;5.924;2022-11-24T07:36:47;12.30;73.60
45537;DHT22;31262;51.978;5.924;2022-11-24T07:39:14;12.30;73.50
45537;DHT22;31262;51.978;5.924;2022-11-24T07:41:39;12.30;73.50
45537;DHT22;31262;51.978;5.924;2022-11-24T07:44:05;12.40;73.50
45537;DHT22;31262;51.978;5.924;2022-11-24T07:46:30;12.40;73.50
45537;DHT22;31262;51.978;5.924;2022-11-24T07:48:56;12.30;73.50
45537;DHT22;31262;51.978;5.924;2022-11-24T07:51:21;12.30;73.50
45537;DHT22;31262;51.978;5.924;2022-11-24T07:53:47;12.30;73.50
45537;DHT22;31262;51.978;5.924;2022-11-24T07:56:12;12.30;73.50
45537;DHT22;31262;51.978;5.924;2022-11-24T07:58:38;12.30;73.50
45537;DHT22;31262;51.978;5.924;2022-11-24T08:01:07;12.30;73.50
45537;DHT22;31262;51.978;5.924;2022-11-24T08:03:34;12.30;73.40
45537;DHT22;31262;51.978;5.924;2022-11-24T08:05:59;12.20;73.50
45537;DHT22;31262;51.978;5.924;2022-11-24T08:08:25;12.20;73.50
45537;DHT22;31262;51.978;5.924;2022-11-24T08:10:51;12.20;73.50
45537;DHT22;31262;51.978;5.924;2022-11-24T08:13:16;12.30;73.50
45537;DHT22;31262;51.978;5.924;2022-11-24T08:15:42;12.20;73.60
45537;DHT22;31262;51.978;5.924;2022-11-24T08:18:07;12.20;73.60
45537;DHT22;31262;51.978;5.924;2022-11-24T08:20:33;12.20;73.60
45537;DHT22;31262;51.978;5.924;2022-11-24T08:22:58;12.20;73.70
45537;DHT22;31262;51.978;5.924;2022-11-24T08:25:27;12.10;73.80
45537;DHT22;31262;51.978;5.924;2022-11-24T08:28:00;12.10;73.90
45537;DHT22;31262;51.978;5.924;2022-11-24T08:30:26;12.10;74.00
45537;DHT22;31262;51.978;5.924;2022-11-24T08:32:51;12.00;74.20
45537;DHT22;31262;51.978;5.924;2022-11-24T08:35:17;12.00;74.40
45537;DHT22;31262;51.978;5.924;2022-11-24T08:37:42;11.90;74.50
45537;DHT22;31262;51.978;5.924;2022-11-24T08:40:08;12.00;74.60
45537;DHT22;31262;51.978;5.924;2022-11-24T08:42:34;12.00;74.70
45537;DHT22;31262;51.978;5.924;2022-11-24T08:44:59;12.00;74.60
45537;DHT22;31262;51.978;5.924;2022-11-24T08:47:25;12.00;74.70
45537;DHT22;31262;51.978;5.924;2022-11-24T08:49:50;12.00;74.80
45537;DHT22;31262;51.978;5.924;2022-11-24T08:52:15;11.90;74.80
45537;DHT22;31262;51.978;5.924;2022-11-24T08:54:41;12.00;74.90
45537;DHT22;31262;51.978;5.924;2022-11-24T08:57:09;12.00;74.90
45537;DHT22;31262;51.978;5.924;2022-11-24T08:59:35;11.90;75.10
45537;DHT22;31262;51.978;5.924;2022-11-24T09:02:00;11.90;75.30
45537;DHT22;31262;51.978;5.924;2022-11-24T09:04:26;11.90;75.40
45537;DHT22;31262;51.978;5.924;2022-11-24T09:06:51;11.80;75.60
45537;DHT22;31262;51.978;5.924;2022-11-24T09:09:17;11.80;75.80
45537;DHT22;31262;51.978;5.924;2022-11-24T09:11:43;11.80;76.10
45537;DHT22;31262;51.978;5.924;2022-11-24T09:14:08;11.80;76.20
45537;DHT22;31262;51.978;5.924;2022-11-24T09:16:34;11.70;76.30
45537;DHT22;31262;51.978;5.924;2022-11-24T09:19:00;11.70;76.30
45537;DHT22;31262;51.978;5.924;2022-11-24T09:21:27;11.80;76.30
45537;DHT22;31262;51.978;5.924;2022-11-24T09:23:52;11.80;76.20
45537;DHT22;31262;51.978;5.924;2022-11-24T09:26:25;11.80;76.20
45537;DHT22;31262;51.978;5.924;2022-11-24T09:28:51;11.90;76.10
45537;DHT22;31262;51.978;5.924;2022-11-24T09:31:19;11.90;75.90
45537;DHT22;31262;51.978;5.924;2022-11-24T09:33:44;11.90;75.90
45537;DHT22;31262;51.978;5.924;2022-11-24T09:36:10;11.90;76.00
45537;DHT22;31262;51.978;5.924;2022-11-24T09:38:35;11.80;76.10
45537;DHT22;31262;51.978;5.924;2022-11-24T09:41:19;11.80;76.80
45537;DHT22;31262;51.978;5.924;2022-11-24T09:43:49;11.80;76.40
45537;DHT22;31262;51.978;5.924;2022-11-24T09:48:57;11.80;77.00
45537;DHT22;31262;51.978;5.924;2022-11-24T09:51:26;11.80;77.30
45537;DHT22;31262;51.978;5.924;2022-11-24T09:56:21;11.70;77.60
45537;DHT22;31262;51.978;5.924;2022-11-24T09:58:48;11.70;77.80
45537;DHT22;31262;51.978;5.924;2022-11-24T10:01:21;11.70;77.80
45537;DHT22;31262;51.978;5.924;2022-11-24T10:03:49;11.70;77.70
45537;DHT22;31262;51.978;5.924;2022-11-24T10:06:22;11.70;77.50
45537;DHT22;31262;51.978;5.924;2022-11-24T10:11:18;11.90;77.20
45537;DHT22;31262;51.978;5.924;2022-11-24T10:16:17;12.10;76.90
45537;DHT22;31262;51.978;5.924;2022-11-24T10:19:03;12.20;76.60
45537;DHT22;31262;51.978;5.924;2022-11-24T10:21:41;12.20;76.50
45537;DHT22;31262;51.978;5.924;2022-11-24T10:24:18;12.30;76.40
45537;DHT22;31262;51.978;5.924;2022-11-24T10:26:50;12.30;76.50
45537;DHT22;31262;51.978;5.924;2022-11-24T10:29:23;12.60;76.50
45537;DHT22;31262;51.978;5.924;2022-11-24T10:31:51;12.80;75.50
45537;DHT22;31262;51.978;5.924;2022-11-24T10:34:20;13.00;74.70
45537;DHT22;31262;51.978;5.924;2022-11-24T10:36:56;13.40;74.10
45537;DHT22;31262;51.978;5.924;2022-11-24T10:39:40;13.70;73.20
45537;DHT22;31262;51.978;5.924;2022-11-24T10:42:18;14.20;72.60
45537;DHT22;31262;51.978;5.924;2022-11-24T10:44:45;14.70;70.40
45537;DHT22;31262;51.978;5.924;2022-11-24T10:47:20;15.20;69.90
45537;DHT22;31262;51.978;5.924;2022-11-24T10:52:40;16.30;67.30
45537;DHT22;31262;51.978;5.924;2022-11-24T10:55:06;16.80;66.00
45537;DHT22;31262;51.978;5.924;2022-11-24T10:57:32;17.20;64.60
45537;DHT22;31262;51.978;5.924;2022-11-24T10:59:59;17.60;64.60
45537;DHT22;31262;51.978;5.924;2022-11-24T11:02:32;18.00;64.10
45537;DHT22;31262;51.978;5.924;2022-11-24T11:04:58;18.30;61.90
45537;DHT22;31262;51.978;5.924;2022-11-24T11:07:24;18.60;60.70
45537;DHT22;31262;51.978;5.924;2022-11-24T11:09:50;18.80;59.70
45537;DHT22;31262;51.978;5.924;2022-11-24T11:12:22;19.10;58.50
45537;DHT22;31262;51.978;5.924;2022-11-24T11:14:51;19.30;57.80
45537;DHT22;31262;51.978;5.924;2022-11-24T11:17:25;19.50;57.50
45537;DHT22;31262;51.978;5.924;2022-11-24T11:19:54;19.70;56.10
45537;DHT22;31262;51.978;5.924;2022-11-24T11:22:32;19.90;55.60
45537;DHT22;31262;51.978;5.924;2022-11-24T11:25:01;20.00;54.60
45537;DHT22;31262;51.978;5.924;2022-11-24T11:27:27;20.10;53.90
45537;DHT22;31262;51.978;5.924;2022-11-24T11:29:52;20.20;53.10
45537;DHT22;31262;51.978;5.924;2022-11-24T11:34:43;20.60;53.40
45537;DHT22;31262;51.978;5.924;2022-11-24T11:37:10;20.70;53.30
45537;DHT22;31262;51.978;5.924;2022-11-24T11:39:38;21.00;53.50
45537;DHT22;31262;51.978;5.924;2022-11-24T11:46:55;21.20;49.00
45537;DHT22;31262;51.978;5.924;2022-11-24T11:49:22;21.20;49.80
45537;DHT22;31262;51.978;5.924;2022-11-24T11:54:29;21.30;49.90
45537;DHT22;31262;51.978;5.924;2022-11-24T11:57:05;21.50;48.60
45537;DHT22;31262;51.978;5.924;2022-11-24T12:07:36;22.30;48.60
45537;DHT22;31262;51.978;5.924;2022-11-24T12:15:36;23.10;48.10
45537;DHT22;31262;51.978;5.924;2022-11-24T12:25:39;23.40;44.00
45537;DHT22;31262;51.978;5.924;2022-11-24T12:30:35;23.20;45.30
45537;DHT22;31262;51.978;5.924;2022-11-24T12:35:54;23.20;44.30
45537;DHT22;31262;51.978;5.924;2022-11-24T12:50:55;22.90;44.00
45537;DHT22;31262;51.978;5.924;2022-11-24T12:53:26;22.70;44.40
45537;DHT22;31262;51.978;5.924;2022-11-24T12:55:52;22.50;44.90
45537;DHT22;31262;51.978;5.924;2022-11-24T12:58:30;22.50;45.00
45537;DHT22;31262;51.978;5.924;2022-11-24T13:03:28;22.20;45.20
45537;DHT22;31262;51.978;5.924;2022-11-24T13:05:59;22.10;45.40
45537;DHT22;31262;51.978;5.924;2022-11-24T13:08:26;22.00;45.20
45537;DHT22;31262;51.978;5.924;2022-11-24T13:10:52;21.70;45.60
45537;DHT22;31262;51.978;5.924;2022-11-24T13:13:18;21.70;46.00
45537;DHT22;31262;51.978;5.924;2022-11-24T13:20:59;21.00;46.60
45537;DHT22;31262;51.978;5.924;2022-11-24T13:23:25;20.80;47.10
45537;DHT22;31262;51.978;5.924;2022-11-24T13:26:12;20.60;47.50
45537;DHT22;31262;51.978;5.924;2022-11-24T13:28:56;20.40;47.80
45537;DHT22;31262;51.978;5.924;2022-11-24T13:31:22;20.20;48.30
45537;DHT22;31262;51.978;5.924;2022-11-24T13:33:47;20.20;48.50
45537;DHT22;31262;51.978;5.924;2022-11-24T13:46:59;20.20;49.10
45537;DHT22;31262;51.978;5.924;2022-11-24T13:49:38;20.00;48.80
45537;DHT22;31262;51.978;5.924;2022-11-24T13:57:39;19.50;49.40
45537;DHT22;31262;51.978;5.924;2022-11-24T14:02:43;19.00;50.20
45537;DHT22;31262;51.978;5.924;2022-11-24T14:05:16;18.60;50.90
45537;DHT22;31262;51.978;5.924;2022-11-24T14:07:42;18.30;51.70
45537;DHT22;31262;51.978;5.924;2022-11-24T14:10:13;17.90;52.60
45537;DHT22;31262;51.978;5.924;2022-11-24T14:12:39;17.60;53.20
45537;DHT22;31262;51.978;5.924;2022-11-24T14:15:21;17.50;53.60
45537;DHT22;31262;51.978;5.924;2022-11-24T14:17:47;17.30;54.00
45537;DHT22;31262;51.978;5.924;2022-11-24T14:20:21;17.30;54.20
45537;DHT22;31262;51.978;5.924;2022-11-24T14:22:47;17.20;54.20
45537;DHT22;31262;51.978;5.924;2022-11-24T14:25:20;17.20;54.20
45537;DHT22;31262;51.978;5.924;2022-11-24T14:27:47;17.20;54.40
45537;DHT22;31262;51.978;5.924;2022-11-24T14:32:38;17.20;54.60
45537;DHT22;31262;51.978;5.924;2022-11-24T14:37:48;17.10;54.70
45537;DHT22;31262;51.978;5.924;2022-11-24T14:42:57;16.90;55.10
45537;DHT22;31262;51.978;5.924;2022-11-24T14:45:23;16.80;55.20
45537;DHT22;31262;51.978;5.924;2022-11-24T14:47:48;16.80;55.50
45537;DHT22;31262;51.978;5.924;2022-11-24T14:50:14;16.70;55.50
45537;DHT22;31262;51.978;5.924;2022-11-24T14:52:43;16.60;55.60
45537;DHT22;31262;51.978;5.924;2022-11-24T14:55:21;16.60;55.80
45537;DHT22;31262;51.978;5.924;2022-11-24T14:57:47;16.60;55.90
45537;DHT22;31262;51.978;5.924;2022-11-24T15:00:24;16.50;55.90
45537;DHT22;31262;51.978;5.924;2022-11-24T15:03:07;16.50;55.90
45537;DHT22;31262;51.978;5.924;2022-11-24T15:05:50;16.60;56.00
45537;DHT22;31262;51.978;5.924;2022-11-24T15:08:16;16.60;55.90
45537;DHT22;31262;51.978;5.924;2022-11-24T15:10:42;16.50;56.00
45537;DHT22;31262;51.978;5.924;2022-11-24T15:13:17;16.50;56.00
45537;DHT22;31262;51.978;5.924;2022-11-24T15:15:54;16.50;56.20
45537;DHT22;31262;51.978;5.924;2022-11-24T15:18:24;16.40;56.30
45537;DHT22;31262;51.978;5.924;2022-11-24T15:20:51;16.40;56.30
45537;DHT22;31262;51.978;5.924;2022-11-24T15:25:47;16.40;56.50
45537;DHT22;31262;51.978;5.924;2022-11-24T15:28:12;16.30;56.50
45537;DHT22;31262;51.978;5.924;2022-11-24T15:30:38;16.10;56.60
45537;DHT22;31262;51.978;5.924;2022-11-24T15:33:10;16.20;56.70
45537;DHT22;31262;51.978;5.924;2022-11-24T15:35:36;16.10;56.70
45537;DHT22;31262;51.978;5.924;2022-11-24T15:38:02;16.10;56.80
45537;DHT22;31262;51.978;5.924;2022-11-24T15:40:27;16.10;56.90
45537;DHT22;31262;51.978;5.924;2022-11-24T15:42:53;16.10;57.00
45537;DHT22;31262;51.978;5.924;2022-11-24T15:45:20;15.90;56.90
45537;DHT22;31262;51.978;5.924;2022-11-24T15:47:45;16.00;57.10
45537;DHT22;31262;51.978;5.924;2022-11-24T15:50:12;16.00;57.20
45537;DHT22;31262;51.978;5.924;2022-11-24T15:52:38;15.90;57.30
45537;DHT22;31262;51.978;5.924;2022-11-24T15:55:04;15.90;57.50
45537;DHT22;31262;51.978;5.924;2022-11-24T15:57:31;15.90;57.60
45537;DHT22;31262;51.978;5.924;2022-11-24T15:59:56;15.90;57.50
45537;DHT22;31262;51.978;5.924;2022-11-24T16:02:22;15.80;57.50
45537;DHT22;31262;51.978;5.924;2022-11-24T16:04:48;15.70;57.70
45537;DHT22;31262;51.978;5.924;2022-11-24T16:07:13;15.70;58.00
45537;DHT22;31262;51.978;5.924;2022-11-24T16:09:39;15.60;58.30
45537;DHT22;31262;51.978;5.924;2022-11-24T16:12:04;15.60;58.40
45537;DHT22;31262;51.978;5.924;2022-11-24T16:14:32;15.80;58.50
45537;DHT22;31262;51.978;5.924;2022-11-24T16:16:58;15.80;58.40
45537;DHT22;31262;51.978;5.924;2022-11-24T16:19:23;15.70;58.50
45537;DHT22;31262;51.978;5.924;2022-11-24T16:21:49;15.70;58.50
45537;DHT22;31262;51.978;5.924;2022-11-24T16:24:14;15.70;58.60
45537;DHT22;31262;51.978;5.924;2022-11-24T16:26:40;15.70;58.80
45537;DHT22;31262;51.978;5.924;2022-11-24T16:29:05;15.70;59.10
45537;DHT22;31262;51.978;5.924;2022-11-24T16:31:31;15.70;59.20
45537;DHT22;31262;51.978;5.924;2022-11-24T16:33:57;15.70;59.30
45537;DHT22;31262;51.978;5.924;2022-11-24T16:36:22;15.70;59.30
45537;DHT22;31262;51.978;5.924;2022-11-24T16:38:48;15.80;59.30
45537;DHT22;31262;51.978;5.924;2022-11-24T16:41:13;15.80;59.20
45537;DHT22;31262;51.978;5.924;2022-11-24T16:43:40;15.80;59.20
45537;DHT22;31262;51.978;5.924;2022-11-24T16:48:43;15.90;59.30
45537;DHT22;31262;51.978;5.924;2022-11-24T16:51:09;15.90;59.30
45537;DHT22;31262;51.978;5.924;2022-11-24T16:53:35;16.00;59.50
45537;DHT22;31262;51.978;5.924;2022-11-24T16:56:00;15.90;59.30
45537;DHT22;31262;51.978;5.924;2022-11-24T16:58:26;16.00;59.60
45537;DHT22;31262;51.978;5.924;2022-11-24T17:00:51;16.20;59.60
45537;DHT22;31262;51.978;5.924;2022-11-24T17:03:18;16.30;59.10
45537;DHT22;31262;51.978;5.924;2022-11-24T17:05:43;16.30;58.80
45537;DHT22;31262;51.978;5.924;2022-11-24T17:08:09;16.30;58.90
45537;DHT22;31262;51.978;5.924;2022-11-24T17:10:37;16.30;59.20
45537;DHT22;31262;51.978;5.924;2022-11-24T17:13:03;16.30;59.40
45537;DHT22;31262;51.978;5.924;2022-11-24T17:15:28;16.30;59.60
45537;DHT22;31262;51.978;5.924;2022-11-24T17:17:54;16.30;59.70